Time;durP1;ratioP1;P1;durP2;ratioP2;P2;SDS_P1;SDS_P2;PMS_P1;PMS_P2;Temp;Humidity;BMP_temperature;BMP_pressure;BME280_temperature;BME280_humidity;BME280_pressure;Samples;Min_cycle;Max_cycle;Signal;HPM_P1;HPM_P2
2023/10/10 00:00:07;;;;;;;14.07;12.83;;;10.60;84.70;;;;;;6278088;28;20280;-81
2023/10/10 00:03:14;;;;;;;14.43;12.90;;;10.60;84.60;;;;;;6271029;28;20842;-81
2023/10/10 00:06:18;;;;;;;14.03;12.70;;;10.60;84.60;;;;;;6288007;28;20251;-81
2023/10/10 00:09:23;;;;;;;13.07;11.87;;;10.50;84.70;;;;;;6281744;28;20243;-81
2023/10/10 00:12:29;;;;;;;13.33;12.13;;;10.50;85.00;;;;;;6281808;28;20310;-83
2023/10/10 00:15:38;;;;;;;14.10;12.70;;;10.50;84.90;;;;;;6289097;28;20236;-82
2023/10/10 00:18:43;;;;;;;13.00;11.87;;;10.50;85.00;;;;;;6272534;28;20272;-80
2023/10/10 00:21:48;;;;;;;12.93;11.70;;;10.50;85.20;;;;;;6274827;28;20344;-82
2023/10/10 00:24:53;;;;;;;12.23;11.13;;;10.50;85.20;;;;;;6286191;28;20241;-82
2023/10/10 00:28:00;;;;;;;10.83;9.93;;;10.60;85.20;;;;;;6277724;28;20238;-82
2023/10/10 00:31:08;;;;;;;11.63;10.63;;;10.60;85.10;;;;;;6272928;28;20399;-83
2023/10/10 00:34:39;;;;;;;14.37;12.97;;;10.60;85.10;;;;;;6277528;28;20243;-80
2023/10/10 00:37:44;;;;;;;12.60;11.47;;;10.50;85.30;;;;;;6284085;28;20229;-81
2023/10/10 00:40:49;;;;;;;13.60;12.50;;;10.60;85.20;;;;;;6278123;28;20248;-80
2023/10/10 00:43:53;;;;;;;13.13;11.80;;;10.60;85.30;;;;;;6284555;28;20241;-81
2023/10/10 00:46:57;;;;;;;12.70;11.47;;;10.60;85.30;;;;;;6272033;28;20842;-82
2023/10/10 00:50:01;;;;;;;13.63;12.33;;;10.60;85.30;;;;;;6277846;28;20333;-81
2023/10/10 00:53:11;;;;;;;12.60;11.53;;;10.70;85.20;;;;;;6288461;28;20813;-81
2023/10/10 00:56:16;;;;;;;12.27;11.17;;;10.70;85.10;;;;;;6273516;28;20244;-82
2023/10/10 00:59:20;;;;;;;12.00;11.03;;;10.70;85.10;;;;;;6276238;28;20233;-81
2023/10/10 01:02:23;;;;;;;12.87;11.57;;;10.70;85.10;;;;;;6279821;28;20237;-82
2023/10/10 01:05:39;;;;;;;12.27;11.17;;;10.70;85.20;;;;;;6282761;28;20240;-81
2023/10/10 01:08:50;;;;;;;12.13;11.20;;;10.70;85.20;;;;;;6281622;28;20709;-79
2023/10/10 01:11:55;;;;;;;12.00;10.80;;;10.70;85.30;;;;;;6283990;28;20723;-83
2023/10/10 01:15:07;;;;;;;13.03;11.87;;;10.70;85.30;;;;;;6289530;28;20241;-80
2023/10/10 01:18:15;;;;;;;10.90;10.03;;;10.70;85.30;;;;;;6281820;28;20314;-80
2023/10/10 01:21:30;;;;;;;12.50;11.33;;;10.70;85.30;;;;;;6288268;28;20725;-79
2023/10/10 01:24:33;;;;;;;10.97;9.90;;;10.70;85.40;;;;;;6297511;28;20271;-82
2023/10/10 01:27:39;;;;;;;10.90;9.90;;;10.70;85.50;;;;;;6283700;28;20744;-81
2023/10/10 01:30:57;;;;;;;9.53;8.83;;;10.70;85.40;;;;;;6281608;28;20413;-80
2023/10/10 01:34:00;;;;;;;9.67;8.97;;;10.70;85.40;;;;;;6279831;28;20261;-82
2023/10/10 01:37:07;;;;;;;9.57;8.73;;;10.70;85.40;;;;;;6277942;28;20325;-81
2023/10/10 01:40:13;;;;;;;9.00;8.23;;;10.70;85.60;;;;;;6285115;28;22622;-81
2023/10/10 01:43:17;;;;;;;8.43;7.87;;;10.80;85.40;;;;;;6290360;28;20248;-82
2023/10/10 01:46:27;;;;;;;8.20;7.70;;;10.80;85.40;;;;;;6280747;28;20237;-81
2023/10/10 01:49:31;;;;;;;9.33;8.73;;;10.80;85.40;;;;;;6298722;28;20222;-73
2023/10/10 01:52:38;;;;;;;8.30;7.80;;;10.80;85.50;;;;;;6306572;28;20668;-76
2023/10/10 01:55:47;;;;;;;8.03;7.43;;;10.80;85.50;;;;;;6290995;28;20759;-81
2023/10/10 01:58:53;;;;;;;8.90;8.20;;;10.80;85.60;;;;;;6288350;28;20237;-79
2023/10/10 02:01:57;;;;;;;7.70;7.20;;;10.80;85.40;;;;;;6290334;28;20248;-81
2023/10/10 02:05:03;;;;;;;7.63;7.13;;;10.90;85.40;;;;;;6266704;28;20625;-81
2023/10/10 02:08:11;;;;;;;8.97;8.30;;;10.90;85.30;;;;;;6284300;28;20240;-81
2023/10/10 02:11:14;;;;;;;8.27;7.77;;;10.80;85.30;;;;;;6286451;28;20279;-81
2023/10/10 02:14:19;;;;;;;8.17;7.67;;;10.80;85.40;;;;;;6291217;28;20280;-82
2023/10/10 02:17:25;;;;;;;8.40;7.80;;;10.80;85.40;;;;;;6281502;28;20399;-81
2023/10/10 02:20:49;;;;;;;8.30;7.60;;;10.80;85.40;;;;;;6301414;28;20289;-75
2023/10/10 02:23:59;;;;;;;7.27;6.87;;;10.80;85.50;;;;;;6312620;28;20247;-75
2023/10/10 02:27:05;;;;;;;8.57;7.87;;;10.80;85.50;;;;;;6313422;28;20336;-78
2023/10/10 02:30:12;;;;;;;8.83;8.20;;;10.80;85.60;;;;;;6323219;28;20270;-77
2023/10/10 02:33:24;;;;;;;9.10;8.40;;;10.80;85.80;;;;;;6317108;28;20237;-76
2023/10/10 02:36:34;;;;;;;9.20;8.50;;;10.80;86.00;;;;;;6312563;28;20243;-78
2023/10/10 02:39:54;;;;;;;9.30;8.50;;;10.80;86.00;;;;;;6316899;28;20242;-79
2023/10/10 02:43:18;;;;;;;10.27;9.27;;;10.80;86.10;;;;;;6312778;28;20233;-78
2023/10/10 02:46:33;;;;;;;8.30;7.70;;;10.70;86.30;;;;;;6320501;28;20213;-78
2023/10/10 02:49:38;;;;;;;10.33;9.53;;;10.80;86.40;;;;;;6317803;28;20244;-81
2023/10/10 02:52:45;;;;;;;10.47;9.47;;;10.80;86.40;;;;;;6301849;28;20217;-80
2023/10/10 02:56:01;;;;;;;9.20;8.50;;;10.80;86.40;;;;;;6310982;28;20240;-79
2023/10/10 02:59:05;;;;;;;8.90;8.27;;;10.80;86.40;;;;;;6300692;28;20265;-79
2023/10/10 03:02:10;;;;;;;9.93;9.17;;;10.90;86.30;;;;;;6313474;28;20252;-76
2023/10/10 03:05:17;;;;;;;9.20;8.30;;;10.90;86.40;;;;;;6321838;28;20266;-79
2023/10/10 03:08:34;;;;;;;9.90;8.80;;;10.90;86.30;;;;;;6311078;28;20233;-77
2023/10/10 03:11:53;;;;;;;9.70;8.90;;;10.90;86.30;;;;;;6315869;28;20247;-79
2023/10/10 03:15:12;;;;;;;8.63;8.03;;;10.90;86.20;;;;;;6320176;28;20226;-78
2023/10/10 03:18:28;;;;;;;9.63;8.77;;;11.00;86.20;;;;;;6311863;28;20286;-79
2023/10/10 03:21:44;;;;;;;10.57;9.57;;;11.00;86.20;;;;;;6308882;28;20217;-83
2023/10/10 03:25:07;;;;;;;10.50;9.50;;;11.00;86.20;;;;;;6308565;28;20229;-79
2023/10/10 03:28:20;;;;;;;13.67;9.83;;;11.00;86.20;;;;;;6301771;28;20218;-80
2023/10/10 03:31:31;;;;;;;10.70;9.70;;;11.00;86.20;;;;;;6305174;28;20259;-79
2023/10/10 03:34:44;;;;;;;11.53;10.43;;;11.10;86.30;;;;;;6311546;28;20225;-79
2023/10/10 03:37:54;;;;;;;11.67;10.17;;;11.00;86.40;;;;;;6312266;28;20310;-78
2023/10/10 05:25:22;;;;;;;11.40;10.50;;;11.80;86.60;;;;;;6272684;28;20234;-78
2023/10/10 05:28:30;;;;;;;12.73;11.50;;;11.90;86.60;;;;;;6281112;28;20236;-80
2023/10/10 05:31:33;;;;;;;11.13;10.23;;;11.90;86.50;;;;;;6280911;28;20241;-81
2023/10/10 05:34:37;;;;;;;13.83;12.57;;;11.90;86.50;;;;;;6284262;28;20229;-80
2023/10/10 05:37:40;;;;;;;11.40;10.40;;;11.90;86.60;;;;;;6286502;28;20941;-81
2023/10/10 05:40:47;;;;;;;14.70;13.30;;;11.90;86.50;;;;;;6288265;28;20248;-77
2023/10/10 05:43:50;;;;;;;13.50;12.20;;;12.00;86.50;;;;;;6270775;28;20707;-79
2023/10/10 05:46:54;;;;;;;14.93;13.17;;;12.00;86.50;;;;;;6275536;28;20367;-79
2023/10/10 05:49:57;;;;;;;13.60;12.17;;;12.10;86.50;;;;;;6293682;28;20319;-80
2023/10/10 05:53:03;;;;;;;16.97;13.93;;;12.10;86.50;;;;;;6286724;28;20244;-80
2023/10/10 05:56:17;;;;;;;13.53;12.13;;;12.20;86.60;;;;;;6288506;28;20244;-80
2023/10/10 05:59:23;;;;;;;11.90;10.90;;;12.30;86.50;;;;;;6280826;28;20233;-77
2023/10/10 06:02:27;;;;;;;11.17;10.00;;;12.30;86.50;;;;;;6287293;28;20241;-77
2023/10/10 06:05:30;;;;;;;12.10;11.00;;;12.30;86.50;;;;;;6294306;28;20245;-77
2023/10/10 06:08:36;;;;;;;13.40;12.03;;;12.30;86.50;;;;;;6287815;28;20267;-81
2023/10/10 06:11:40;;;;;;;18.07;13.13;;;12.50;86.50;;;;;;6274119;28;20242;-78
2023/10/10 06:14:43;;;;;;;11.27;10.30;;;12.50;86.60;;;;;;6298407;28;20237;-79
2023/10/10 06:17:48;;;;;;;13.47;12.33;;;12.50;86.60;;;;;;6285381;28;20237;-78
2023/10/10 06:20:51;;;;;;;16.40;14.70;;;12.50;86.60;;;;;;6279907;28;20252;-79
2023/10/10 06:24:12;;;;;;;12.77;11.37;;;12.50;86.60;;;;;;6288177;28;20237;-79
2023/10/10 06:27:20;;;;;;;11.80;10.70;;;12.60;86.90;;;;;;6277355;28;20892;-80
2023/10/10 06:30:24;;;;;;;11.03;9.97;;;12.70;86.90;;;;;;6282142;28;20240;-79
2023/10/10 06:33:28;;;;;;;10.67;9.77;;;12.80;87.30;;;;;;6284107;28;20302;-79
2023/10/10 06:36:37;;;;;;;9.00;8.23;;;12.90;87.30;;;;;;6291196;28;20232;-80
2023/10/10 06:39:54;;;;;;;10.60;8.83;;;12.90;87.30;;;;;;6285864;28;20238;-81
2023/10/10 06:43:00;;;;;;;7.93;7.37;;;13.00;87.30;;;;;;6285332;28;20230;-77
2023/10/10 06:46:05;;;;;;;11.83;8.30;;;13.10;87.20;;;;;;6291127;28;20242;-77
2023/10/10 06:49:12;;;;;;;9.03;8.33;;;13.20;87.10;;;;;;6288563;28;20259;-79
2023/10/10 06:52:19;;;;;;;8.33;7.60;;;13.30;87.10;;;;;;6288701;28;20237;-82
2023/10/10 06:55:23;;;;;;;8.30;7.13;;;13.30;86.90;;;;;;6285366;28;20937;-80
2023/10/10 06:58:32;;;;;;;8.20;7.50;;;13.40;86.70;;;;;;6274770;28;20686;-80
2023/10/10 07:01:36;;;;;;;8.63;7.83;;;13.50;86.50;;;;;;6283636;28;20241;-78
2023/10/10 07:04:43;;;;;;;8.77;8.07;;;13.50;86.20;;;;;;6288175;28;20384;-79
2023/10/10 07:07:47;;;;;;;8.47;7.73;;;13.50;85.70;;;;;;6282480;28;20316;-79
2023/10/10 07:10:55;;;;;;;7.37;6.60;;;13.50;85.70;;;;;;6287169;28;20237;-78
2023/10/10 07:13:59;;;;;;;7.73;7.00;;;13.60;85.70;;;;;;6288841;28;20263;-81
2023/10/10 07:17:08;;;;;;;6.87;6.40;;;13.60;85.30;;;;;;6277204;28;20267;-78
2023/10/10 07:23:38;;;;;;;8.07;7.37;;;13.70;85.10;;;;;;6285270;28;20230;-80
2023/10/10 07:26:58;;;;;;;7.50;6.77;;;13.70;85.00;;;;;;6285794;28;20621;-78
2023/10/10 07:30:16;;;;;;;8.40;7.80;;;13.80;85.10;;;;;;6282190;28;20713;-79
2023/10/10 07:33:23;;;;;;;8.63;7.23;;;13.80;84.80;;;;;;6277039;28;20726;-79
2023/10/10 07:36:27;;;;;;;8.27;7.63;;;13.80;84.80;;;;;;6290371;28;20229;-80
2023/10/10 07:39:35;;;;;;;7.97;7.17;;;13.90;84.60;;;;;;6268670;28;20283;-79
2023/10/10 07:42:38;;;;;;;7.87;7.23;;;13.90;84.50;;;;;;6282758;28;20234;-79
2023/10/10 07:45:44;;;;;;;10.23;8.10;;;13.90;84.50;;;;;;6284623;28;20335;-75
2023/10/10 07:48:46;;;;;;;10.07;6.50;;;13.90;84.60;;;;;;6286806;28;20240;-75
2023/10/10 07:51:49;;;;;;;8.10;7.50;;;13.90;84.60;;;;;;6283046;28;20239;-77
2023/10/10 07:54:53;;;;;;;7.60;6.93;;;13.90;84.10;;;;;;6280338;28;20911;-78
2023/10/10 07:57:59;;;;;;;8.50;7.70;;;13.90;84.60;;;;;;6283529;28;20920;-76
2023/10/10 08:01:09;;;;;;;7.77;7.13;;;13.90;84.60;;;;;;6287002;28;20309;-80
2023/10/10 08:04:14;;;;;;;8.43;7.63;;;14.00;84.70;;;;;;6284241;28;20291;-79
2023/10/10 08:07:20;;;;;;;9.63;8.17;;;14.10;84.50;;;;;;6283730;28;20225;-79
2023/10/10 08:10:38;;;;;;;8.67;7.97;;;14.20;83.60;;;;;;6285369;28;20860;-80
2023/10/10 08:13:48;;;;;;;8.97;8.13;;;14.30;83.50;;;;;;6276065;28;20238;-80
2023/10/10 08:16:59;;;;;;;9.17;8.10;;;14.40;83.30;;;;;;6274742;28;20910;-78
2023/10/10 08:20:31;;;;;;;8.20;7.60;;;14.40;82.80;;;;;;6283823;28;20370;-79
2023/10/10 08:23:27;;;;;;;8.03;7.33;;;14.30;82.50;;;;;;6288745;28;20245;-79
2023/10/10 08:26:38;;;;;;;8.90;8.20;;;14.40;82.70;;;;;;6287661;28;20229;-80
2023/10/10 08:29:42;;;;;;;7.97;7.27;;;14.50;82.80;;;;;;6279230;28;20235;-81
2023/10/10 08:32:48;;;;;;;7.23;6.60;;;14.60;82.00;;;;;;6280484;28;20269;-78
2023/10/10 08:35:51;;;;;;;6.90;6.50;;;14.70;81.20;;;;;;6287472;28;20353;-80
2023/10/10 08:38:57;;;;;;;7.80;7.20;;;14.70;81.40;;;;;;6273964;28;20235;-80
2023/10/10 08:42:05;;;;;;;6.53;6.03;;;14.80;80.90;;;;;;6285220;28;20241;-79
2023/10/10 08:45:22;;;;;;;7.00;6.50;;;14.90;80.50;;;;;;6284741;28;20244;-80
2023/10/10 08:48:28;;;;;;;6.73;6.13;;;15.00;80.10;;;;;;6288431;28;20243;-79
2023/10/10 08:51:34;;;;;;;5.53;5.23;;;15.20;78.90;;;;;;6290159;28;20276;-77
2023/10/10 08:54:38;;;;;;;6.83;5.80;;;15.20;79.10;;;;;;6281970;28;20242;-80
2023/10/10 08:57:45;;;;;;;6.70;6.00;;;15.20;79.30;;;;;;6286061;28;20696;-82
2023/10/10 09:00:49;;;;;;;5.73;5.23;;;15.30;79.00;;;;;;6276733;28;20329;-80
2023/10/10 09:03:57;;;;;;;5.30;5.10;;;15.30;77.90;;;;;;6277581;28;20245;-78
2023/10/10 09:07:08;;;;;;;5.70;5.30;;;15.20;77.90;;;;;;6285388;28;20726;-80
2023/10/10 09:10:14;;;;;;;5.50;4.93;;;15.20;77.80;;;;;;6285586;28;20221;-80
2023/10/10 09:13:18;;;;;;;5.10;4.80;;;15.10;77.70;;;;;;6282015;28;20380;-80
2023/10/10 09:16:42;;;;;;;4.80;4.43;;;15.20;78.30;;;;;;6289005;28;20239;-81
2023/10/10 09:19:47;;;;;;;5.07;4.67;;;15.30;78.50;;;;;;6288408;28;20234;-80
2023/10/10 09:22:52;;;;;;;4.87;4.47;;;15.50;78.00;;;;;;6287945;28;20244;-78
2023/10/10 09:26:19;;;;;;;5.17;4.97;;;15.50;77.10;;;;;;6285256;28;20280;-79
2023/10/10 09:29:30;;;;;;;5.83;5.43;;;15.50;77.00;;;;;;6283956;28;20230;-81
2023/10/10 09:32:42;;;;;;;5.03;4.73;;;15.50;76.70;;;;;;6285903;28;20233;-77
2023/10/10 09:35:48;;;;;;;5.13;4.63;;;15.50;76.70;;;;;;6273355;28;20234;-78
2023/10/10 09:38:57;;;;;;;4.33;4.20;;;15.50;76.70;;;;;;6285800;28;21539;-79
2023/10/10 09:42:06;;;;;;;5.43;4.67;;;15.50;76.40;;;;;;6281475;28;20236;-77
2023/10/10 09:45:27;;;;;;;4.63;4.40;;;15.60;76.40;;;;;;6281873;28;20746;-78
2023/10/10 09:48:59;;;;;;;5.30;5.00;;;15.60;75.70;;;;;;6278297;28;20237;-79
2023/10/10 09:55:39;;;;;;;4.43;4.03;;;15.80;75.30;;;;;;6260794;28;20280;-81
2023/10/10 09:58:44;;;;;;;4.27;4.07;;;15.80;74.30;;;;;;6280998;28;20233;-77
2023/10/10 10:01:48;;;;;;;4.07;3.80;;;15.90;74.60;;;;;;6270816;28;20644;-80
2023/10/10 10:04:53;;;;;;;3.90;3.70;;;15.80;74.60;;;;;;6274774;28;20691;-81
2023/10/10 10:08:06;;;;;;;5.20;4.03;;;16.00;74.20;;;;;;6297679;28;20225;-80
2023/10/10 10:11:14;;;;;;;4.30;4.10;;;16.10;74.10;;;;;;6277974;28;20276;-80
2023/10/10 10:14:28;;;;;;;3.50;3.30;;;16.20;73.40;;;;;;6287716;28;20288;-78
2023/10/10 10:17:47;;;;;;;5.87;3.70;;;16.20;72.70;;;;;;6283204;28;20237;-80
2023/10/10 10:21:05;;;;;;;4.30;4.10;;;16.20;73.10;;;;;;6279977;28;20799;-80
2023/10/10 10:24:16;;;;;;;4.47;4.03;;;15.90;73.40;;;;;;6283966;28;20225;-80
2023/10/10 10:27:24;;;;;;;3.77;3.57;;;15.90;74.40;;;;;;6275035;28;20233;-81
2023/10/10 10:30:46;;;;;;;4.50;4.30;;;15.80;74.50;;;;;;6277582;28;20237;-79
2023/10/10 10:34:06;;;;;;;4.10;3.90;;;15.80;75.00;;;;;;6279747;28;20359;-80
2023/10/10 10:37:19;;;;;;;4.60;4.30;;;15.80;75.70;;;;;;6283522;28;20306;-80
2023/10/10 10:40:41;;;;;;;3.83;3.63;;;15.80;75.40;;;;;;6273903;28;20316;-80
2023/10/10 10:43:49;;;;;;;4.60;4.20;;;16.00;75.70;;;;;;6266719;28;20245;-80
2023/10/10 10:46:57;;;;;;;4.90;4.37;;;15.80;75.20;;;;;;6283488;28;20329;-78
2023/10/10 10:50:02;;;;;;;4.80;4.40;;;15.80;75.70;;;;;;6278730;28;20254;-81
2023/10/10 10:53:08;;;;;;;4.87;4.60;;;15.80;75.80;;;;;;6285162;28;20306;-78
2023/10/10 10:59:39;;;;;;;5.30;5.00;;;16.00;75.70;;;;;;6280492;28;20225;-79
2023/10/10 11:02:49;;;;;;;5.77;4.93;;;15.80;76.20;;;;;;6280476;28;20261;-79
2023/10/10 11:05:55;;;;;;;4.73;4.53;;;15.80;76.20;;;;;;6282044;28;20234;-79
2023/10/10 11:09:09;;;;;;;5.63;4.80;;;15.80;75.90;;;;;;6276593;28;20734;-81
2023/10/10 11:12:14;;;;;;;4.90;4.50;;;16.00;75.80;;;;;;6280353;28;20250;-80
2023/10/10 11:15:18;;;;;;;5.37;4.90;;;16.00;75.90;;;;;;6272239;28;20257;-79
2023/10/10 11:18:34;;;;;;;5.17;4.80;;;16.10;75.00;;;;;;6281618;28;20326;-79
2023/10/10 11:21:47;;;;;;;4.33;4.03;;;16.10;74.50;;;;;;6283025;28;20837;-81
2023/10/10 11:24:57;;;;;;;5.63;4.53;;;16.20;75.00;;;;;;6285210;28;20638;-78
2023/10/10 11:28:04;;;;;;;4.77;4.37;;;16.10;75.00;;;;;;6266066;28;20898;-80
2023/10/10 11:31:07;;;;;;;5.03;4.43;;;16.00;75.70;;;;;;6281059;28;20328;-79
2023/10/10 11:34:25;;;;;;;6.53;4.80;;;15.80;75.90;;;;;;6276949;28;20446;-79
2023/10/10 11:37:34;;;;;;;5.47;4.97;;;15.60;76.40;;;;;;6280644;28;20252;-81
2023/10/10 11:40:38;;;;;;;5.00;4.60;;;15.60;76.60;;;;;;6284524;28;20234;-81
2023/10/10 11:44:01;;;;;;;5.33;4.83;;;15.60;76.90;;;;;;6285051;28;20328;-80
2023/10/10 11:47:24;;;;;;;5.37;4.87;;;15.60;76.60;;;;;;6277139;28;20374;-78
2023/10/10 11:50:44;;;;;;;5.33;4.27;;;15.60;76.60;;;;;;6281069;28;20226;-80
2023/10/10 11:53:47;;;;;;;7.60;4.20;;;15.60;76.60;;;;;;6281826;28;20265;-80
2023/10/10 11:56:50;;;;;;;4.63;4.23;;;15.60;76.40;;;;;;6281701;28;20236;-80
2023/10/10 11:59:54;;;;;;;4.43;4.23;;;15.50;75.90;;;;;;6285175;28;20241;-80
2023/10/10 12:02:58;;;;;;;4.80;4.10;;;15.60;76.00;;;;;;6282289;28;20240;-79
2023/10/10 12:06:01;;;;;;;4.40;4.10;;;15.60;75.70;;;;;;6282879;28;20249;-80
2023/10/10 12:09:04;;;;;;;5.57;3.83;;;15.60;75.80;;;;;;6284692;28;20399;-79
2023/10/10 12:12:09;;;;;;;5.63;4.10;;;15.60;75.80;;;;;;6276245;28;20298;-79
2023/10/10 12:15:19;;;;;;;4.27;3.97;;;15.80;76.10;;;;;;6271850;28;20376;-80
2023/10/10 12:18:22;;;;;;;3.53;3.43;;;16.00;75.80;;;;;;6281563;28;20260;-81
2023/10/10 12:21:26;;;;;;;7.50;4.10;;;16.40;75.70;;;;;;6280470;28;20240;-79
2023/10/10 12:24:29;;;;;;;4.10;3.90;;;16.60;74.20;;;;;;6274100;28;20230;-80
2023/10/10 12:27:32;;;;;;;4.00;3.70;;;16.60;73.80;;;;;;6277434;28;20328;-79
2023/10/10 12:30:40;;;;;;;4.70;4.43;;;16.60;73.90;;;;;;6284463;28;20294;-77
2023/10/10 12:33:45;;;;;;;5.97;4.50;;;16.40;73.40;;;;;;6279723;28;20237;-82
2023/10/10 12:36:49;;;;;;;4.30;4.13;;;16.40;73.60;;;;;;6279443;28;20236;-81
2023/10/10 12:39:52;;;;;;;4.13;3.87;;;16.30;74.40;;;;;;6281820;28;20237;-78
2023/10/10 12:42:56;;;;;;;4.27;4.07;;;16.30;74.40;;;;;;6282734;28;20608;-80
2023/10/10 12:46:04;;;;;;;4.63;4.10;;;16.20;74.60;;;;;;6280191;28;20684;-79
2023/10/10 12:49:11;;;;;;;5.20;4.80;;;16.10;75.00;;;;;;6268483;28;20750;-78
2023/10/10 12:52:17;;;;;;;6.33;5.53;;;16.10;75.30;;;;;;6286073;28;20441;-80
2023/10/10 12:55:25;;;;;;;5.00;4.60;;;16.20;75.40;;;;;;6288396;28;20476;-80
2023/10/10 12:58:30;;;;;;;4.37;4.17;;;16.40;75.20;;;;;;6277136;28;20229;-79
2023/10/10 13:01:35;;;;;;;4.30;3.90;;;16.60;74.00;;;;;;6278711;28;20288;-80
2023/10/10 13:04:39;;;;;;;3.27;3.17;;;16.80;73.90;;;;;;6288254;28;20241;-79
2023/10/10 13:07:43;;;;;;;3.37;3.10;;;16.90;73.50;;;;;;6287072;28;20236;-78
2023/10/10 13:10:54;;;;;;;3.70;3.43;;;16.90;71.90;;;;;;6287529;28;20229;-79
2023/10/10 13:13:59;;;;;;;3.47;3.30;;;17.00;72.00;;;;;;6287058;28;20240;-80
2023/10/10 13:20:24;;;;;;;3.27;3.07;;;16.80;71.50;;;;;;6272787;28;20232;-81
2023/10/10 13:23:27;;;;;;;3.13;2.93;;;16.60;72.30;;;;;;6289609;28;20229;-80
2023/10/10 13:26:31;;;;;;;3.43;3.23;;;16.70;72.40;;;;;;6286278;28;20236;-81
2023/10/10 13:29:36;;;;;;;5.40;4.90;;;16.80;72.60;;;;;;6279061;28;20238;-78
2023/10/10 13:32:41;;;;;;;3.57;3.47;;;16.80;72.30;;;;;;6283274;28;20996;-79
2023/10/10 13:35:45;;;;;;;2.90;2.80;;;16.60;73.20;;;;;;6285903;28;20645;-78
2023/10/10 13:38:50;;;;;;;3.80;3.70;;;16.80;73.30;;;;;;6285965;28;20233;-77
2023/10/10 13:41:53;;;;;;;3.53;3.30;;;17.00;73.00;;;;;;6285022;28;20278;-80
2023/10/10 13:45:11;;;;;;;3.53;3.23;;;17.10;73.00;;;;;;6284822;28;20237;-80
2023/10/10 13:48:18;;;;;;;3.47;3.37;;;17.20;72.50;;;;;;6285053;28;20237;-80
2023/10/10 13:51:21;;;;;;;3.97;3.70;;;17.20;72.90;;;;;;6274477;28;20341;-79
2023/10/10 13:54:26;;;;;;;4.07;3.67;;;17.00;72.50;;;;;;6286531;28;20748;-80
2023/10/10 13:57:29;;;;;;;3.50;3.20;;;16.70;72.80;;;;;;6281286;28;20229;-80
2023/10/10 14:00:36;;;;;;;7.00;3.70;;;16.60;73.30;;;;;;6283594;28;20259;-81
2023/10/10 14:03:45;;;;;;;3.47;3.30;;;16.60;73.20;;;;;;6279041;28;20328;-81
2023/10/10 14:06:49;;;;;;;4.03;3.83;;;16.40;73.30;;;;;;6288487;28;20226;-81
2023/10/10 14:09:52;;;;;;;3.57;3.47;;;16.40;73.80;;;;;;6287512;28;20388;-79
2023/10/10 14:13:19;;;;;;;3.40;3.30;;;16.50;74.00;;;;;;6281683;28;20301;-78
2023/10/10 14:16:24;;;;;;;4.03;3.87;;;16.60;73.60;;;;;;6280983;28;20309;-81
2023/10/10 14:19:32;;;;;;;3.53;3.43;;;16.60;73.60;;;;;;6283521;28;20240;-80
2023/10/10 14:22:38;;;;;;;4.13;3.87;;;16.60;73.50;;;;;;6282316;28;20245;-81
2023/10/10 14:26:12;;;;;;;3.97;3.77;;;16.60;73.20;;;;;;6278862;28;20364;-78
2023/10/10 14:29:16;;;;;;;4.60;4.13;;;16.60;73.00;;;;;;6281870;28;20241;-79
2023/10/10 14:32:20;;;;;;;4.07;3.90;;;16.60;73.10;;;;;;6281627;28;20631;-76
2023/10/10 14:35:43;;;;;;;4.30;4.00;;;16.50;73.30;;;;;;6289984;28;20229;-79
2023/10/10 14:38:49;;;;;;;3.97;3.67;;;16.50;73.80;;;;;;6278133;28;20234;-80
2023/10/10 14:41:53;;;;;;;3.10;3.10;;;16.50;74.10;;;;;;6281593;28;20660;-79
2023/10/10 14:44:56;;;;;;;3.60;3.50;;;16.60;74.10;;;;;;6284841;28;20248;-78
2023/10/10 14:47:59;;;;;;;3.90;3.80;;;16.50;74.00;;;;;;6282049;28;20245;-78
2023/10/10 14:51:05;;;;;;;3.60;3.33;;;16.60;73.80;;;;;;6288739;28;20282;-79
2023/10/10 14:54:11;;;;;;;3.80;3.60;;;16.40;73.70;;;;;;6286788;28;20243;-76
2023/10/10 14:57:24;;;;;;;3.80;3.70;;;16.40;74.10;;;;;;6286298;28;20884;-77
2023/10/10 15:00:28;;;;;;;3.90;3.60;;;16.40;74.40;;;;;;6279613;28;20644;-79
2023/10/10 15:03:40;;;;;;;4.00;3.70;;;16.40;74.50;;;;;;6285966;28;20728;-79
2023/10/10 15:06:47;;;;;;;3.93;3.70;;;16.40;74.40;;;;;;6280278;28;20229;-78
2023/10/10 15:09:50;;;;;;;3.83;3.63;;;16.20;74.70;;;;;;6289746;28;20313;-77
2023/10/10 15:12:53;;;;;;;4.03;3.83;;;16.20;74.80;;;;;;6287790;28;20233;-80
2023/10/10 15:15:56;;;;;;;4.17;3.97;;;16.20;75.00;;;;;;6283545;28;20310;-80
2023/10/10 15:19:01;;;;;;;3.63;3.53;;;16.20;75.00;;;;;;6286513;28;20264;-83
2023/10/10 15:22:12;;;;;;;4.97;4.50;;;16.20;74.90;;;;;;6281033;28;20315;-82
2023/10/10 15:25:15;;;;;;;4.20;4.00;;;16.20;75.00;;;;;;6283760;28;20241;-84
2023/10/10 15:28:18;;;;;;;3.93;3.73;;;16.20;75.00;;;;;;6269120;28;20241;-81
2023/10/10 15:31:26;;;;;;;4.27;4.03;;;16.30;74.80;;;;;;6283244;28;20858;-81
2023/10/10 15:34:30;;;;;;;4.13;3.93;;;16.30;74.70;;;;;;6285809;28;20238;-83
2023/10/10 15:37:42;;;;;;;4.77;4.47;;;16.30;74.90;;;;;;6286822;28;20244;-81
2023/10/10 15:40:45;;;;;;;4.40;4.10;;;16.30;75.00;;;;;;6284868;28;20229;-83
2023/10/10 15:43:49;;;;;;;4.80;4.60;;;16.20;75.10;;;;;;6282022;28;20241;-81
2023/10/10 15:46:58;;;;;;;4.37;4.17;;;16.20;75.40;;;;;;6285088;28;20256;-81
2023/10/10 15:50:02;;;;;;;6.27;4.33;;;16.20;75.50;;;;;;6276347;28;20239;-81
2023/10/10 15:53:06;;;;;;;5.67;5.37;;;16.00;75.90;;;;;;6277648;28;20240;-82
2023/10/10 15:56:15;;;;;;;6.67;6.17;;;15.80;76.40;;;;;;6280979;28;20302;-82
2023/10/10 15:59:21;;;;;;;6.87;6.23;;;15.80;76.60;;;;;;6279263;28;20241;-83
2023/10/10 16:05:43;;;;;;;6.90;5.80;;;15.60;77.10;;;;;;6287681;28;20631;-81
2023/10/10 16:08:49;;;;;;;7.67;7.00;;;15.60;77.20;;;;;;6286506;28;20233;-81
2023/10/10 16:11:53;;;;;;;6.40;6.10;;;15.60;77.20;;;;;;6277976;28;20236;-82
2023/10/10 16:15:00;;;;;;;8.03;6.23;;;15.60;77.30;;;;;;6285814;28;20728;-82
2023/10/10 16:18:04;;;;;;;7.80;7.10;;;15.60;77.50;;;;;;6278651;28;20320;-83
2023/10/10 16:21:08;;;;;;;8.70;7.83;;;15.50;77.70;;;;;;6284020;28;20611;-82
2023/10/10 16:24:14;;;;;;;8.20;7.50;;;15.50;77.90;;;;;;6289357;28;20245;-84
2023/10/10 16:27:18;;;;;;;7.20;6.67;;;15.40;78.10;;;;;;6274441;28;20261;-84
2023/10/10 16:30:21;;;;;;;7.63;6.97;;;15.40;78.20;;;;;;6276114;28;20610;-84
2023/10/10 16:33:25;;;;;;;7.20;6.57;;;15.30;78.60;;;;;;6283979;28;20314;-85
2023/10/10 16:36:29;;;;;;;6.03;5.73;;;15.30;78.70;;;;;;6281481;28;20229;-86
2023/10/10 16:39:35;;;;;;;5.03;4.73;;;15.30;79.00;;;;;;6289252;28;20640;-85
2023/10/10 16:42:39;;;;;;;5.63;5.33;;;15.20;79.20;;;;;;6280485;28;20711;-83
2023/10/10 16:45:43;;;;;;;6.07;5.67;;;15.20;79.30;;;;;;6290483;28;20324;-83
2023/10/10 16:48:47;;;;;;;6.07;5.67;;;15.20;79.30;;;;;;6288576;28;20245;-87
2023/10/10 16:51:54;;;;;;;8.13;6.83;;;15.20;79.40;;;;;;6306228;28;20247;-86
2023/10/10 16:54:59;;;;;;;8.17;7.37;;;15.20;79.80;;;;;;6308942;28;20243;-85
2023/10/10 16:58:03;;;;;;;9.53;7.03;;;15.20;79.80;;;;;;6281410;28;20233;-84
2023/10/10 17:01:09;;;;;;;6.67;6.30;;;15.20;79.90;;;;;;6296804;28;20230;-83
2023/10/10 17:04:26;;;;;;;6.60;6.10;;;15.20;79.90;;;;;;6285756;28;20241;-84
2023/10/10 17:07:30;;;;;;;8.60;7.90;;;15.20;79.90;;;;;;6274380;28;20307;-85
2023/10/10 17:10:35;;;;;;;8.13;7.43;;;15.20;80.00;;;;;;6272626;28;20238;-84
2023/10/10 17:13:43;;;;;;;8.50;7.70;;;15.20;80.00;;;;;;6277655;28;20242;-84
2023/10/10 17:16:47;;;;;;;8.07;7.50;;;15.20;80.00;;;;;;6291231;28;20801;-85
2023/10/10 17:19:52;;;;;;;9.57;8.77;;;15.20;80.00;;;;;;6288895;28;20605;-85
2023/10/10 17:22:56;;;;;;;11.30;9.47;;;15.20;80.20;;;;;;6282233;28;20240;-85
2023/10/10 17:26:08;;;;;;;9.30;8.33;;;15.20;80.20;;;;;;6273578;28;20228;-85
2023/10/10 17:29:14;;;;;;;8.97;8.30;;;15.10;80.30;;;;;;6298062;28;20332;-87
2023/10/10 17:36:18;;;;;;;9.10;8.27;;;15.10;80.50;;;;;;6237753;28;20246;-86
2023/10/10 17:39:25;;;;;;;10.03;9.00;;;15.10;80.50;;;;;;6266973;28;20236;-85
2023/10/10 17:42:34;;;;;;;9.27;8.57;;;15.10;80.50;;;;;;6296163;28;20749;-85
2023/10/10 17:45:42;;;;;;;9.30;8.70;;;15.20;80.50;;;;;;6283748;28;20245;-84
2023/10/10 17:48:46;;;;;;;9.83;9.13;;;15.20;80.50;;;;;;6299641;28;20232;-85
2023/10/10 17:51:53;;;;;;;9.47;8.77;;;15.20;80.50;;;;;;6289308;28;20321;-84
2023/10/10 17:54:57;;;;;;;9.70;8.90;;;15.10;80.70;;;;;;6281081;28;20252;-86
2023/10/10 17:58:03;;;;;;;9.67;8.93;;;15.00;80.80;;;;;;6302123;28;20228;-85
2023/10/10 18:01:09;;;;;;;10.93;9.00;;;15.00;80.80;;;;;;6291641;28;20237;-87
2023/10/10 18:04:14;;;;;;;11.50;10.50;;;15.10;80.90;;;;;;6275877;28;20729;-85
2023/10/10 18:07:22;;;;;;;12.83;11.40;;;15.00;80.90;;;;;;6288430;28;20229;-84
2023/10/10 18:10:26;;;;;;;11.50;10.20;;;15.00;80.90;;;;;;6285453;28;20233;-84
2023/10/10 18:13:35;;;;;;;10.40;9.40;;;15.00;81.10;;;;;;6280037;28;20894;-85
2023/10/10 18:16:39;;;;;;;10.30;9.30;;;15.00;81.20;;;;;;6277268;28;20241;-84